Time;durP1;ratioP1;P1;durP2;ratioP2;P2;SDS_P1;SDS_P2;PMS_P1;PMS_P2;Temp;Humidity;BMP_temperature;BMP_pressure;BME280_temperature;BME280_humidity;BME280_pressure;Samples;Min_cycle;Max_cycle;Signal;HPM_P1;HPM_P2
2023/11/20 00:06:09;;;;;;;2.65;1.10;;;2.70;99.90;;;;;;25477506;23;20005;-60
2023/11/20 00:16:14;;;;;;;2.35;1.33;;;2.80;99.90;;;;;;25477125;23;20009;-60
2023/11/20 00:26:16;;;;;;;1.65;0.85;;;2.40;99.90;;;;;;25476655;23;20010;-54
2023/11/20 00:36:23;;;;;;;2.47;1.30;;;2.30;99.90;;;;;;25473471;23;20013;-53
2023/11/20 00:46:26;;;;;;;2.70;1.00;;;2.30;99.90;;;;;;25474129;23;20013;-59
2023/11/20 00:56:28;;;;;;;2.30;1.30;;;2.20;99.90;;;;;;25474230;23;20016;-59
2023/11/20 01:06:30;;;;;;;0.85;0.40;;;2.40;99.90;;;;;;25474974;23;20006;-59
2023/11/20 01:16:32;;;;;;;2.58;1.15;;;2.40;99.90;;;;;;25474382;23;20010;-60
2023/11/20 01:26:38;;;;;;;0.93;0.50;;;2.40;99.90;;;;;;25473024;23;20009;-60
2023/11/20 01:36:41;;;;;;;1.83;0.68;;;2.40;99.90;;;;;;25514840;23;20016;-60
2023/11/20 01:46:43;;;;;;;1.73;0.60;;;2.40;99.90;;;;;;25471544;23;20052;-60
2023/11/20 01:56:46;;;;;;;0.65;0.30;;;2.30;99.90;;;;;;25473239;23;20052;-60
2023/11/20 02:06:49;;;;;;;1.95;0.30;;;2.50;99.90;;;;;;25446539;23;20013;-59
2023/11/20 02:16:51;;;;;;;1.45;0.52;;;2.60;99.90;;;;;;25472455;23;20005;-60
2023/11/20 02:27:08;;;;;;;1.73;0.60;;;2.70;99.90;;;;;;25470783;23;20014;-60
2023/11/20 02:37:10;;;;;;;0.17;0.03;;;2.60;99.90;;;;;;25511817;23;20006;-53
2023/11/20 02:47:12;;;;;;;0.30;0.10;;;2.90;99.90;;;;;;25512313;23;20012;-60
2023/11/20 02:57:15;;;;;;;0.08;0.00;;;3.00;99.90;;;;;;25471364;23;20504;-52
2023/11/20 03:07:18;;;;;;;0.95;0.50;;;3.30;99.90;;;;;;25469628;23;20017;-60
2023/11/20 03:17:21;;;;;;;4.28;0.70;;;3.20;99.90;;;;;;25470703;23;20005;-59
2023/11/20 03:27:25;;;;;;;1.80;0.98;;;2.70;99.90;;;;;;25470773;23;20374;-60
2023/11/20 03:37:27;;;;;;;1.67;1.05;;;2.30;99.90;;;;;;25470295;23;20009;-60
2023/11/20 03:47:29;;;;;;;1.88;0.98;;;1.90;99.90;;;;;;25510908;23;20013;-60
2023/11/20 03:57:31;;;;;;;1.00;0.40;;;2.00;99.90;;;;;;25468857;23;20044;-60
2023/11/20 04:07:34;;;;;;;1.10;0.50;;;2.10;99.90;;;;;;25469061;23;20353;-60
2023/11/20 04:17:35;;;;;;;2.35;0.90;;;2.30;99.90;;;;;;25476070;23;20005;-59
2023/11/20 04:27:37;;;;;;;1.10;0.65;;;2.50;99.90;;;;;;25476892;23;20373;-60
2023/11/20 04:37:39;;;;;;;3.15;1.05;;;2.40;99.90;;;;;;25476082;23;20109;-61
2023/11/20 04:47:41;;;;;;;1.27;0.50;;;2.10;99.90;;;;;;25474975;23;20107;-60
2023/11/20 04:57:44;;;;;;;1.92;1.02;;;1.70;99.90;;;;;;25475686;23;20037;-60
2023/11/20 05:07:46;;;;;;;2.25;1.10;;;1.70;99.90;;;;;;25474013;23;20014;-60
2023/11/20 05:17:48;;;;;;;1.73;0.90;;;1.60;99.90;;;;;;25474765;23;20060;-60
2023/11/20 05:27:49;;;;;;;2.75;1.05;;;1.40;99.90;;;;;;25473846;23;20057;-51
2023/11/20 05:37:51;;;;;;;1.65;0.80;;;1.20;99.90;;;;;;25473444;23;20010;-60
2023/11/20 05:47:53;;;;;;;1.20;0.80;;;1.10;99.90;;;;;;25473675;23;20014;-58
2023/11/20 05:57:59;;;;;;;1.20;0.60;;;1.00;99.90;;;;;;25473491;23;20378;-59
2023/11/20 06:08:01;;;;;;;0.95;0.50;;;1.10;99.90;;;;;;25513868;23;20040;-60
2023/11/20 06:18:02;;;;;;;0.45;0.20;;;1.10;99.90;;;;;;25472537;23;20009;-60
2023/11/20 06:28:05;;;;;;;0.32;0.30;;;1.40;99.90;;;;;;25472293;23;20005;-60
2023/11/20 06:38:07;;;;;;;0.85;0.30;;;1.80;99.90;;;;;;25471528;23;20009;-53
2023/11/20 06:48:09;;;;;;;1.85;0.60;;;1.80;99.90;;;;;;25469932;23;20017;-60
2023/11/20 06:58:13;;;;;;;1.17;0.52;;;1.90;99.90;;;;;;25472570;23;20089;-60
2023/11/20 07:08:16;;;;;;;1.15;0.35;;;2.00;99.90;;;;;;25471430;23;20010;-59
2023/11/20 07:18:21;;;;;;;1.20;0.45;;;2.10;99.90;;;;;;25511066;23;20009;-60
2023/11/20 07:28:24;;;;;;;1.30;0.55;;;2.80;99.90;;;;;;25470864;23;20056;-60
2023/11/20 07:38:26;;;;;;;1.35;0.57;;;3.70;99.90;;;;;;25468760;23;20068;-59
2023/11/20 07:48:29;;;;;;;3.60;0.65;;;4.20;99.90;;;;;;25474492;23;20001;-53
2023/11/20 07:58:30;;;;;;;0.70;0.40;;;5.00;99.90;;;;;;25477800;23;20009;-60
2023/11/20 08:08:32;;;;;;;1.20;0.60;;;5.50;99.90;;;;;;25477419;23;20381;-51
2023/11/20 08:18:36;;;;;;;3.05;0.75;;;5.60;99.90;;;;;;25477045;23;20441;-56
2023/11/20 08:28:38;;;;;;;1.08;0.30;;;5.50;99.90;;;;;;25476437;23;20326;-53
2023/11/20 08:38:39;;;;;;;0.95;0.52;;;5.50;99.90;;;;;;25476190;23;20009;-57
2023/11/20 08:48:41;;;;;;;2.75;1.45;;;6.20;99.90;;;;;;25476073;23;20016;-58
2023/11/20 08:58:43;;;;;;;1.83;0.70;;;6.70;99.90;;;;;;25474822;23;20018;-51
2023/11/20 09:08:45;;;;;;;3.63;1.48;;;7.30;99.90;;;;;;25474342;23;20005;-58
2023/11/20 09:18:47;;;;;;;2.38;1.38;;;7.90;99.90;;;;;;25474366;23;20002;-57
2023/11/20 09:28:49;;;;;;;3.47;2.10;;;8.40;99.90;;;;;;25474357;23;20343;-58
2023/11/20 09:38:51;;;;;;;3.03;1.90;;;9.00;99.90;;;;;;25473694;23;20013;-48
2023/11/20 09:48:54;;;;;;;2.28;1.80;;;9.50;99.90;;;;;;25473573;23;20076;-51
2023/11/20 09:58:57;;;;;;;3.95;3.08;;;10.00;99.90;;;;;;25473223;23;20017;-57
2023/11/20 10:09:02;;;;;;;4.03;3.15;;;10.30;99.90;;;;;;25472383;23;20002;-58
2023/11/20 10:19:04;;;;;;;4.30;3.10;;;10.10;99.90;;;;;;25472174;23;20006;-59
2023/11/20 10:29:09;;;;;;;3.47;2.50;;;10.40;99.90;;;;;;25472297;23;20041;-53
2023/11/20 10:39:14;;;;;;;4.07;3.15;;;10.80;99.40;;;;;;25471527;23;20018;-53
2023/11/20 10:49:22;;;;;;;6.72;4.22;;;11.50;99.40;;;;;;25471225;23;20001;-60
2023/11/20 10:59:24;;;;;;;5.63;4.55;;;11.60;98.00;;;;;;25511975;23;20006;-50
2023/11/20 11:09:27;;;;;;;5.85;4.53;;;11.60;98.60;;;;;;25471428;23;20013;-51
2023/11/20 11:19:39;;;;;;;11.38;6.03;;;11.60;99.00;;;;;;25472600;23;20333;-60
2023/11/20 11:29:45;;;;;;;7.40;6.00;;;10.70;99.40;;;;;;25519764;23;20028;-60
2023/11/20 11:39:59;;;;;;;7.78;6.03;;;10.50;99.90;;;;;;25507619;23;20025;-50
2023/11/20 11:50:01;;;;;;;9.40;5.95;;;10.50;99.90;;;;;;25518840;23;20010;-60
2023/11/20 12:00:25;;;;;;;8.18;6.10;;;10.50;99.90;;;;;;25478064;23;20430;-52
2023/11/20 12:10:45;;;;;;;7.63;6.22;;;10.40;99.90;;;;;;25518375;23;20014;-60
2023/11/20 12:20:54;;;;;;;7.53;5.88;;;10.00;99.90;;;;;;25517587;23;20006;-49
2023/11/20 12:30:56;;;;;;;9.50;6.45;;;9.90;99.90;;;;;;25517084;23;20005;-60
2023/11/20 12:41:03;;;;;;;10.10;6.00;;;9.70;99.90;;;;;;25476165;23;20017;-60
2023/11/20 12:51:07;;;;;;;9.70;6.60;;;10.60;99.90;;;;;;25516234;23;20532;-50
2023/11/20 13:01:11;;;;;;;10.55;8.00;;;11.10;99.90;;;;;;25476763;23;20005;-51
2023/11/20 13:11:17;;;;;;;9.57;7.60;;;10.80;99.90;;;;;;25473560;23;20005;-60
2023/11/20 13:21:25;;;;;;;10.88;8.30;;;10.30;99.90;;;;;;25515274;23;20504;-60
2023/11/20 13:31:34;;;;;;;12.48;9.40;;;9.30;99.90;;;;;;25514900;23;20012;-61
2023/11/20 13:41:41;;;;;;;14.53;10.53;;;8.70;99.90;;;;;;25495802;23;20064;-59
2023/11/20 13:51:43;;;;;;;13.70;10.00;;;8.30;99.90;;;;;;25473242;23;20009;-60
2023/11/20 14:01:44;;;;;;;12.75;9.65;;;7.90;99.90;;;;;;25473012;23;20076;-60
2023/11/20 14:11:47;;;;;;;14.85;10.77;;;7.50;99.90;;;;;;25472376;23;20013;-60
2023/11/20 14:21:49;;;;;;;14.00;9.55;;;7.50;99.90;;;;;;25468944;23;20433;-60
2023/11/20 14:31:54;;;;;;;17.42;13.32;;;7.20;99.90;;;;;;25472150;23;20013;-51
2023/11/20 14:41:56;;;;;;;19.35;13.23;;;7.00;99.90;;;;;;25470700;23;20065;-60
2023/11/20 14:51:59;;;;;;;21.35;15.52;;;6.50;99.90;;;;;;25471167;23;20005;-60
2023/11/20 15:02:02;;;;;;;21.38;15.23;;;6.20;99.90;;;;;;25469504;23;20005;-59
2023/11/20 15:12:05;;;;;;;23.50;16.95;;;5.80;99.90;;;;;;25470979;23;20013;-50
2023/11/20 15:22:07;;;;;;;22.83;16.40;;;5.60;99.90;;;;;;25470819;23;20349;-50
2023/11/20 15:32:09;;;;;;;24.02;16.00;;;5.40;99.90;;;;;;25470565;23;20072;-58
2023/11/20 15:42:11;;;;;;;22.95;16.33;;;5.00;99.90;;;;;;25470451;23;20009;-55
2023/11/20 15:52:12;;;;;;;26.00;17.50;;;4.50;99.90;;;;;;25470033;23;20033;-59
2023/11/20 16:02:14;;;;;;;23.00;15.48;;;4.30;99.90;;;;;;25468220;23;20001;-59
2023/11/20 16:12:17;;;;;;;16.05;11.10;;;4.20;99.90;;;;;;25475866;23;20005;-47
2023/11/20 16:22:19;;;;;;;14.05;9.18;;;4.20;99.90;;;;;;25476862;23;20319;-60
2023/11/20 16:32:21;;;;;;;14.30;10.18;;;4.00;99.90;;;;;;25476688;23;20337;-59
2023/11/20 16:42:23;;;;;;;20.30;12.02;;;3.90;99.90;;;;;;25476261;23;20092;-48
2023/11/20 16:52:25;;;;;;;26.63;17.40;;;3.80;99.90;;;;;;25475674;23;20013;-58
2023/11/20 17:02:26;;;;;;;22.65;15.05;;;3.60;99.90;;;;;;25475525;23;20330;-54
2023/11/20 17:12:32;;;;;;;19.17;12.32;;;3.60;99.90;;;;;;25475251;23;20005;-60
2023/11/20 17:22:35;;;;;;;15.88;11.00;;;3.90;99.90;;;;;;25515531;23;20441;-49
2023/11/20 17:32:37;;;;;;;16.90;11.02;;;3.80;99.90;;;;;;25474240;23;20083;-61
2023/11/20 17:42:39;;;;;;;18.65;11.73;;;3.70;99.90;;;;;;25474007;23;20060;-59
2023/11/20 17:52:42;;;;;;;19.77;11.43;;;3.70;99.90;;;;;;25473561;23;20005;-61
2023/11/20 18:02:45;;;;;;;16.80;11.13;;;3.40;99.90;;;;;;25473293;23;20009;-60
2023/11/20 18:12:47;;;;;;;18.40;11.80;;;3.30;99.90;;;;;;25472745;23;20064;-60
2023/11/20 18:22:50;;;;;;;29.10;15.40;;;3.20;99.90;;;;;;25472219;23;20005;-60
2023/11/20 18:32:51;;;;;;;28.38;18.70;;;3.20;99.90;;;;;;25472037;23;20037;-60
2023/11/20 18:42:53;;;;;;;33.85;21.67;;;3.10;99.90;;;;;;25471904;23;20009;-60
2023/11/20 18:52:55;;;;;;;35.35;20.48;;;3.00;99.90;;;;;;25471544;23;20005;-61
2023/11/20 19:02:59;;;;;;;35.13;21.20;;;3.00;99.90;;;;;;25471873;23;20418;-60
2023/11/20 19:13:01;;;;;;;35.38;22.52;;;3.00;99.90;;;;;;25471045;23;20009;-58
2023/11/20 19:23:05;;;;;;;28.83;17.45;;;2.90;99.90;;;;;;25470273;23;20100;-58
2023/11/20 19:33:12;;;;;;;30.40;16.70;;;2.90;99.90;;;;;;25470688;23;20017;-51
2023/11/20 19:43:15;;;;;;;26.42;16.08;;;2.90;99.90;;;;;;25489484;23;20072;-60
2023/11/20 19:53:17;;;;;;;25.88;15.80;;;2.80;99.90;;;;;;25478180;23;20005;-51
2023/11/20 20:03:20;;;;;;;23.02;13.48;;;2.80;99.90;;;;;;25475699;23;20128;-60
2023/11/20 20:13:22;;;;;;;23.55;14.40;;;2.70;99.90;;;;;;25475243;23;20013;-60
2023/11/20 20:23:30;;;;;;;24.55;14.68;;;2.70;99.90;;;;;;25477215;23;20005;-60
2023/11/20 20:33:32;;;;;;;28.52;16.65;;;2.60;99.90;;;;;;25517299;23;20113;-50
2023/11/20 20:43:35;;;;;;;25.75;15.60;;;2.50;99.90;;;;;;25475816;23;20338;-60
2023/11/20 20:53:40;;;;;;;28.60;16.80;;;2.40;99.90;;;;;;25474688;23;20017;-59
2023/11/20 21:03:42;;;;;;;28.65;17.25;;;2.30;99.90;;;;;;25474597;23;20006;-59
2023/11/20 21:13:45;;;;;;;29.15;17.58;;;2.30;99.90;;;;;;25475308;23;20034;-51
2023/11/20 21:23:47;;;;;;;27.10;16.95;;;2.40;99.90;;;;;;25474649;23;20492;-59
2023/11/20 21:33:49;;;;;;;32.38;19.80;;;2.40;99.90;;;;;;25474172;23;20005;-59
2023/11/20 21:43:51;;;;;;;34.17;20.45;;;2.40;99.90;;;;;;25473996;23;20072;-60
2023/11/20 21:53:53;;;;;;;33.20;21.80;;;2.50;99.90;;;;;;25472678;23;20005;-50
2023/11/20 22:03:54;;;;;;;31.15;19.98;;;2.50;99.90;;;;;;25472285;23;20001;-54
2023/11/20 22:13:56;;;;;;;35.17;21.00;;;2.60;99.90;;;;;;25472512;23;20006;-59
2023/11/20 22:23:58;;;;;;;35.15;22.00;;;2.70;99.90;;;;;;25472594;23;20013;-49
2023/11/20 22:34:00;;;;;;;33.65;19.80;;;2.80;99.90;;;;;;25470805;23;20009;-52
2023/11/20 22:44:02;;;;;;;36.38;19.92;;;2.80;99.90;;;;;;25471668;23;20017;-59
2023/11/20 22:54:07;;;;;;;31.88;19.85;;;2.90;99.90;;;;;;25471779;23;20085;-53
2023/11/20 23:04:09;;;;;;;31.08;18.65;;;2.90;99.90;;;;;;25469549;23;20060;-59
2023/11/20 23:14:11;;;;;;;31.15;19.80;;;3.00;99.90;;;;;;25471869;23;20009;-56
2023/11/20 23:24:13;;;;;;;28.08;17.60;;;3.20;99.90;;;;;;25478317;23;20060;-51
2023/11/20 23:34:21;;;;;;;29.67;18.80;;;3.30;99.90;;;;;;25477209;23;20010;-60
2023/11/20 23:44:24;;;;;;;26.90;17.50;;;3.50;99.90;;;;;;25475249;23;20045;-60
2023/11/20 23:54:26;;;;;;;29.15;18.80;;;3.70;99.90;;;;;;25478196;23;20499;-60
